全部
Halmstad Airport (Halmstad) HAD 天氣
|
Halmstad (HAD / ESMT)
晴天
多風 |
|
21 °C |
HAD終端機場天氣預報
| Date | Time (CEST) | Flight Rules | Wind Dir. | Speed | Type | Height AGL (ft) | Visibility | Remarks | ||||||
|---|---|---|---|---|---|---|---|---|---|---|---|---|---|---|
HAD近期METAR歷史資料
| Date | Time (CEST) | Flight Rules | Wind Dir. | Speed | Type | Height AGL (ft) | Visibility | Temp (°C) | Temp (°F) | Dew Point (°C) | Dew Point (°F) | Rel. Humid. | Pressure | Density Altitude | Remarks |
|---|---|---|---|---|---|---|---|---|---|---|---|---|---|---|---|
| 02-五月 | 17:50 | VFR | 240° | 12 kt | 10000 meters | 21° | 69° | 6° | 42° | 38% | 1013 mb | 827 ft | |||
| 02-五月 | 17:20 | VFR | 240° | 12 kt | 10000 meters | 21° | 69° | 5° | 41° | 35% | 1014 mb | 798 ft | |||
| 02-五月 | 16:50 | VFR | 240° | 13 kt | 10000 meters | 22° | 71° | 5° | 41° | 33% | 1014 mb | 918 ft | |||
| 02-五月 | 16:20 | VFR | 240° | 12 kt | 10000 meters | 22° | 71° | 4° | 39° | 31% | 1014 mb | 918 ft | |||
| 02-五月 | 15:50 | VFR | 220° | 14 kt | 10000 meters | 22° | 71° | 6° | 42° | 35% | 1015 mb | 888 ft | |||
| 02-五月 | 15:20 | VFR | 230° | 14 kt | 10000 meters | 22° | 71° | 7° | 44° | 38% | 1015 mb | 888 ft | |||
| 02-五月 | 14:50 | VFR | 220° | 15 kt | 10000 meters | 22° | 71° | 8° | 46° | 41% | 1015 mb | 888 ft | |||
| 02-五月 | 14:20 | VFR | 220° | 12 kt | 10000 meters | 22° | 71° | 8° | 46° | 41% | 1016 mb | 859 ft | |||
| 02-五月 | 13:50 | VFR | 220° | 13 kt | 10000 meters | 22° | 71° | 8° | 46° | 41% | 1016 mb | 859 ft | |||
| 02-五月 | 13:20 | VFR | 220° | 13 kt | 10000 meters | 22° | 71° | 8° | 46° | 41% | 1016 mb | 859 ft | |||
| 02-五月 | 12:50 | VFR | 220° | 13 kt | 10000 meters | 21° | 69° | 7° | 44° | 40% | 1017 mb | 709 ft | |||
| 02-五月 | 12:20 | VFR | 220° | 11 kt | 10000 meters | 20° | 68° | 8° | 46° | 46% | 1017 mb | 589 ft | |||
| 02-五月 | 11:50 | VFR | 200° | 12 kt | 10000 meters | 19° | 66° | 7° | 44° | 46% | 1017 mb | 469 ft | |||
| 02-五月 | 11:20 | VFR | 190° | 13 kt | 10000 meters | 19° | 66° | 7° | 44° | 46% | 1017 mb | 469 ft | |||
| 02-五月 | 10:50 | VFR | 210° | 13 kt | 10000 meters | 19° | 66° | 7° | 44° | 46% | 1018 mb | 439 ft | |||
| 02-五月 | 10:20 | VFR | 200° | 11 kt | 10000 meters | 18° | 64° | 7° | 44° | 49% | 1018 mb | 319 ft | |||
| 02-五月 | 09:50 | VFR | 170° | 8 kt | 10000 meters | 17° | 62° | 7° | 44° | 52% | 1018 mb | 199 ft | |||
| 02-五月 | 09:20 | VFR | 180° | 9 kt | 10000 meters | 16° | 60° | 7° | 44° | 55% | 1018 mb | 79 ft | |||
| 02-五月 | 08:50 | VFR | 160° | 6 kt | 10000 meters | 16° | 60° | 7° | 44° | 55% | 1018 mb | 79 ft | |||
| 02-五月 | 08:20 | VFR | 180° | 7 kt | 10000 meters | 15° | 59° | 6° | 42° | 55% | 1019 mb | -70 ft | |||
| 02-五月 | 07:50 | VFR | 150° | 5 kt | 10000 meters | 14° | 57° | 6° | 42° | 58% | 1019 mb | -190 ft | |||
| 02-五月 | 07:20 | VFR | 10° | 2 kt | 10000 meters | 9° | 48° | 6° | 42° | 81% | 1019 mb | -790 ft | |||
| 02-五月 | 06:50 | VFR | Variable | 2 kt | 10000 meters | 5° | 41° | 4° | 39° | 93% | 1019 mb | -1,270 ft | |||
| 02-五月 | 06:20 | VFR | 20° | 3 kt | 10000 meters | 2° | 35° | 1° | 33° | 93% | 1019 mb | -1,630 ft |
登入
| 您的瀏覽器不支援. 升級您的瀏覽器 |
